sensor_id;sensor_type;location;lat;lon;timestamp;P1;durP1;ratioP1;P2;durP2;ratioP2
65583;SDS011;73032;43.592;1.458;2024-02-26T00:00:36;6.22;;;3.08;;
65583;SDS011;73032;43.592;1.458;2024-02-26T00:03:04;8.40;;;2.88;;
65583;SDS011;73032;43.592;1.458;2024-02-26T00:05:30;9.18;;;2.85;;
65583;SDS011;73032;43.592;1.458;2024-02-26T00:07:58;8.57;;;2.80;;
65583;SDS011;73032;43.592;1.458;2024-02-26T00:10:28;6.35;;;2.53;;
65583;SDS011;73032;43.592;1.458;2024-02-26T00:12:55;5.22;;;2.83;;
65583;SDS011;73032;43.592;1.458;2024-02-26T00:15:22;4.47;;;2.55;;
65583;SDS011;73032;43.592;1.458;2024-02-26T00:17:49;11.98;;;2.60;;
65583;SDS011;73032;43.592;1.458;2024-02-26T00:20:16;5.68;;;2.90;;
65583;SDS011;73032;43.592;1.458;2024-02-26T00:22:42;5.18;;;2.50;;
65583;SDS011;73032;43.592;1.458;2024-02-26T00:25:09;6.32;;;2.33;;
65583;SDS011;73032;43.592;1.458;2024-02-26T00:27:36;8.68;;;2.80;;
65583;SDS011;73032;43.592;1.458;2024-02-26T00:30:02;6.60;;;2.70;;
65583;SDS011;73032;43.592;1.458;2024-02-26T00:32:29;7.40;;;2.83;;
65583;SDS011;73032;43.592;1.458;2024-02-26T00:34:56;7.72;;;2.65;;
65583;SDS011;73032;43.592;1.458;2024-02-26T00:37:23;9.93;;;3.00;;
65583;SDS011;73032;43.592;1.458;2024-02-26T00:39:49;10.77;;;3.25;;
65583;SDS011;73032;43.592;1.458;2024-02-26T00:42:16;7.50;;;2.78;;
65583;SDS011;73032;43.592;1.458;2024-02-26T00:44:43;8.75;;;2.35;;
65583;SDS011;73032;43.592;1.458;2024-02-26T00:47:10;6.53;;;2.70;;
65583;SDS011;73032;43.592;1.458;2024-02-26T00:49:36;9.88;;;2.90;;
65583;SDS011;73032;43.592;1.458;2024-02-26T00:52:03;7.22;;;2.85;;
65583;SDS011;73032;43.592;1.458;2024-02-26T00:54:30;11.57;;;2.70;;
65583;SDS011;73032;43.592;1.458;2024-02-26T00:56:57;6.22;;;2.20;;
65583;SDS011;73032;43.592;1.458;2024-02-26T00:59:23;5.20;;;2.58;;
65583;SDS011;73032;43.592;1.458;2024-02-26T01:01:50;9.80;;;2.65;;
65583;SDS011;73032;43.592;1.458;2024-02-26T01:04:17;7.28;;;3.03;;
65583;SDS011;73032;43.592;1.458;2024-02-26T01:06:43;8.85;;;2.55;;
65583;SDS011;73032;43.592;1.458;2024-02-26T01:09:10;6.40;;;2.22;;
65583;SDS011;73032;43.592;1.458;2024-02-26T01:11:37;4.35;;;2.25;;
65583;SDS011;73032;43.592;1.458;2024-02-26T01:14:04;6.88;;;2.47;;
65583;SDS011;73032;43.592;1.458;2024-02-26T01:16:30;5.63;;;2.10;;
65583;SDS011;73032;43.592;1.458;2024-02-26T01:18:58;5.97;;;2.25;;
65583;SDS011;73032;43.592;1.458;2024-02-26T01:21:25;5.00;;;1.98;;
65583;SDS011;73032;43.592;1.458;2024-02-26T01:23:53;5.45;;;2.20;;
65583;SDS011;73032;43.592;1.458;2024-02-26T01:26:20;8.98;;;2.30;;
65583;SDS011;73032;43.592;1.458;2024-02-26T01:28:48;6.07;;;1.92;;
65583;SDS011;73032;43.592;1.458;2024-02-26T01:31:15;6.63;;;1.92;;
65583;SDS011;73032;43.592;1.458;2024-02-26T01:33:41;8.20;;;2.53;;
65583;SDS011;73032;43.592;1.458;2024-02-26T01:36:08;12.35;;;2.50;;
65583;SDS011;73032;43.592;1.458;2024-02-26T01:38:35;7.07;;;2.40;;
65583;SDS011;73032;43.592;1.458;2024-02-26T01:41:02;7.13;;;2.42;;
65583;SDS011;73032;43.592;1.458;2024-02-26T01:43:29;5.80;;;2.33;;
65583;SDS011;73032;43.592;1.458;2024-02-26T01:45:55;5.60;;;2.30;;
65583;SDS011;73032;43.592;1.458;2024-02-26T01:48:22;4.72;;;2.47;;
65583;SDS011;73032;43.592;1.458;2024-02-26T01:50:49;5.45;;;2.20;;
65583;SDS011;73032;43.592;1.458;2024-02-26T01:53:16;8.85;;;2.13;;
65583;SDS011;73032;43.592;1.458;2024-02-26T01:55:44;9.13;;;2.35;;
65583;SDS011;73032;43.592;1.458;2024-02-26T01:58:11;6.15;;;2.20;;
65583;SDS011;73032;43.592;1.458;2024-02-26T02:00:39;8.43;;;2.92;;
65583;SDS011;73032;43.592;1.458;2024-02-26T02:03:06;6.90;;;2.80;;
65583;SDS011;73032;43.592;1.458;2024-02-26T02:05:33;8.52;;;2.40;;
65583;SDS011;73032;43.592;1.458;2024-02-26T02:08:09;5.30;;;2.00;;
65583;SDS011;73032;43.592;1.458;2024-02-26T02:10:38;6.22;;;2.35;;
65583;SDS011;73032;43.592;1.458;2024-02-26T02:13:05;7.30;;;2.35;;
65583;SDS011;73032;43.592;1.458;2024-02-26T02:15:31;4.95;;;2.20;;
65583;SDS011;73032;43.592;1.458;2024-02-26T02:17:58;6.78;;;2.22;;
65583;SDS011;73032;43.592;1.458;2024-02-26T02:20:34;6.82;;;2.30;;
65583;SDS011;73032;43.592;1.458;2024-02-26T02:23:02;9.60;;;2.50;;
65583;SDS011;73032;43.592;1.458;2024-02-26T02:25:29;5.78;;;2.25;;
65583;SDS011;73032;43.592;1.458;2024-02-26T02:27:56;5.30;;;2.15;;
65583;SDS011;73032;43.592;1.458;2024-02-26T02:30:24;8.85;;;2.30;;
65583;SDS011;73032;43.592;1.458;2024-02-26T02:32:53;17.02;;;2.38;;
65583;SDS011;73032;43.592;1.458;2024-02-26T02:35:20;8.07;;;2.75;;
65583;SDS011;73032;43.592;1.458;2024-02-26T02:37:46;7.28;;;2.88;;
65583;SDS011;73032;43.592;1.458;2024-02-26T02:40:13;10.07;;;3.25;;
65583;SDS011;73032;43.592;1.458;2024-02-26T02:42:40;9.63;;;2.60;;
65583;SDS011;73032;43.592;1.458;2024-02-26T02:45:07;10.82;;;2.47;;
65583;SDS011;73032;43.592;1.458;2024-02-26T02:47:37;8.02;;;2.60;;
65583;SDS011;73032;43.592;1.458;2024-02-26T02:50:06;6.38;;;2.50;;
65583;SDS011;73032;43.592;1.458;2024-02-26T02:52:33;6.57;;;2.30;;
65583;SDS011;73032;43.592;1.458;2024-02-26T02:55:00;8.05;;;2.40;;
65583;SDS011;73032;43.592;1.458;2024-02-26T02:57:27;7.53;;;2.53;;
65583;SDS011;73032;43.592;1.458;2024-02-26T02:59:55;11.63;;;2.38;;
65583;SDS011;73032;43.592;1.458;2024-02-26T03:02:22;10.07;;;2.17;;
65583;SDS011;73032;43.592;1.458;2024-02-26T03:04:51;6.75;;;2.25;;
65583;SDS011;73032;43.592;1.458;2024-02-26T03:07:18;10.68;;;2.00;;
65583;SDS011;73032;43.592;1.458;2024-02-26T03:09:44;14.35;;;2.20;;
65583;SDS011;73032;43.592;1.458;2024-02-26T03:12:11;12.05;;;1.70;;
65583;SDS011;73032;43.592;1.458;2024-02-26T03:14:38;8.15;;;1.65;;
65583;SDS011;73032;43.592;1.458;2024-02-26T03:17:05;8.13;;;1.50;;
65583;SDS011;73032;43.592;1.458;2024-02-26T03:19:31;9.82;;;1.65;;
65583;SDS011;73032;43.592;1.458;2024-02-26T03:21:58;8.07;;;1.60;;
65583;SDS011;73032;43.592;1.458;2024-02-26T03:24:25;8.27;;;1.40;;
65583;SDS011;73032;43.592;1.458;2024-02-26T03:26:51;6.45;;;1.38;;
65583;SDS011;73032;43.592;1.458;2024-02-26T03:29:19;8.30;;;1.20;;
65583;SDS011;73032;43.592;1.458;2024-02-26T03:31:45;11.30;;;1.45;;
65583;SDS011;73032;43.592;1.458;2024-02-26T03:34:12;11.32;;;1.33;;
65583;SDS011;73032;43.592;1.458;2024-02-26T03:36:41;9.90;;;1.05;;
65583;SDS011;73032;43.592;1.458;2024-02-26T03:39:08;8.57;;;1.25;;
65583;SDS011;73032;43.592;1.458;2024-02-26T03:41:36;6.68;;;1.20;;
65583;SDS011;73032;43.592;1.458;2024-02-26T03:44:03;8.95;;;1.38;;
65583;SDS011;73032;43.592;1.458;2024-02-26T03:46:29;8.90;;;1.65;;
65583;SDS011;73032;43.592;1.458;2024-02-26T03:48:56;8.38;;;1.40;;
65583;SDS011;73032;43.592;1.458;2024-02-26T03:51:23;5.40;;;1.10;;
65583;SDS011;73032;43.592;1.458;2024-02-26T03:53:50;7.97;;;1.17;;
65583;SDS011;73032;43.592;1.458;2024-02-26T03:56:17;7.40;;;1.17;;
65583;SDS011;73032;43.592;1.458;2024-02-26T03:58:43;4.18;;;0.88;;
65583;SDS011;73032;43.592;1.458;2024-02-26T04:01:10;6.45;;;0.90;;
65583;SDS011;73032;43.592;1.458;2024-02-26T04:03:37;7.07;;;1.02;;
65583;SDS011;73032;43.592;1.458;2024-02-26T04:06:04;4.63;;;1.10;;
65583;SDS011;73032;43.592;1.458;2024-02-26T04:08:30;5.60;;;0.90;;
65583;SDS011;73032;43.592;1.458;2024-02-26T04:10:57;6.07;;;1.00;;
65583;SDS011;73032;43.592;1.458;2024-02-26T04:13:24;8.65;;;1.02;;
65583;SDS011;73032;43.592;1.458;2024-02-26T04:15:51;8.27;;;1.15;;
65583;SDS011;73032;43.592;1.458;2024-02-26T04:18:18;7.53;;;1.00;;
65583;SDS011;73032;43.592;1.458;2024-02-26T04:20:45;5.80;;;0.82;;
65583;SDS011;73032;43.592;1.458;2024-02-26T04:23:12;6.20;;;0.80;;
65583;SDS011;73032;43.592;1.458;2024-02-26T04:25:38;8.82;;;1.10;;
65583;SDS011;73032;43.592;1.458;2024-02-26T04:28:05;7.10;;;1.10;;
65583;SDS011;73032;43.592;1.458;2024-02-26T04:30:32;5.60;;;1.08;;
65583;SDS011;73032;43.592;1.458;2024-02-26T04:32:59;6.10;;;1.13;;
65583;SDS011;73032;43.592;1.458;2024-02-26T04:35:25;4.72;;;0.82;;
65583;SDS011;73032;43.592;1.458;2024-02-26T04:37:52;4.78;;;0.90;;
65583;SDS011;73032;43.592;1.458;2024-02-26T04:40:19;5.47;;;0.90;;
65583;SDS011;73032;43.592;1.458;2024-02-26T04:42:46;6.03;;;1.00;;
65583;SDS011;73032;43.592;1.458;2024-02-26T04:45:12;5.53;;;0.98;;
65583;SDS011;73032;43.592;1.458;2024-02-26T04:47:39;4.75;;;0.80;;
65583;SDS011;73032;43.592;1.458;2024-02-26T04:50:06;8.57;;;1.15;;
65583;SDS011;73032;43.592;1.458;2024-02-26T04:52:33;3.53;;;0.60;;
65583;SDS011;73032;43.592;1.458;2024-02-26T04:55:00;10.15;;;0.75;;
65583;SDS011;73032;43.592;1.458;2024-02-26T04:57:26;3.17;;;0.80;;
65583;SDS011;73032;43.592;1.458;2024-02-26T04:59:53;5.80;;;0.60;;
65583;SDS011;73032;43.592;1.458;2024-02-26T05:02:20;7.45;;;0.80;;
65583;SDS011;73032;43.592;1.458;2024-02-26T05:04:47;5.65;;;0.77;;
65583;SDS011;73032;43.592;1.458;2024-02-26T05:07:13;4.13;;;0.70;;
65583;SDS011;73032;43.592;1.458;2024-02-26T05:09:40;6.80;;;0.93;;
65583;SDS011;73032;43.592;1.458;2024-02-26T05:12:08;4.88;;;0.80;;
65583;SDS011;73032;43.592;1.458;2024-02-26T05:14:36;4.25;;;1.05;;
65583;SDS011;73032;43.592;1.458;2024-02-26T05:17:02;4.20;;;0.80;;
65583;SDS011;73032;43.592;1.458;2024-02-26T05:19:29;5.30;;;1.15;;
65583;SDS011;73032;43.592;1.458;2024-02-26T05:21:56;3.67;;;0.60;;
65583;SDS011;73032;43.592;1.458;2024-02-26T05:24:23;3.50;;;0.50;;
65583;SDS011;73032;43.592;1.458;2024-02-26T05:26:50;4.88;;;0.80;;
65583;SDS011;73032;43.592;1.458;2024-02-26T05:29:16;4.22;;;0.80;;
65583;SDS011;73032;43.592;1.458;2024-02-26T05:31:43;4.45;;;0.90;;
65583;SDS011;73032;43.592;1.458;2024-02-26T05:34:10;2.10;;;0.60;;
65583;SDS011;73032;43.592;1.458;2024-02-26T05:36:37;4.72;;;0.90;;
65583;SDS011;73032;43.592;1.458;2024-02-26T05:39:03;4.93;;;0.80;;
65583;SDS011;73032;43.592;1.458;2024-02-26T05:41:30;2.95;;;0.60;;
65583;SDS011;73032;43.592;1.458;2024-02-26T05:43:58;4.72;;;0.82;;
65583;SDS011;73032;43.592;1.458;2024-02-26T05:46:25;6.03;;;0.85;;
65583;SDS011;73032;43.592;1.458;2024-02-26T05:48:53;2.88;;;0.68;;
65583;SDS011;73032;43.592;1.458;2024-02-26T05:51:20;4.93;;;0.60;;
65583;SDS011;73032;43.592;1.458;2024-02-26T05:53:47;3.05;;;0.70;;
65583;SDS011;73032;43.592;1.458;2024-02-26T05:56:21;2.10;;;0.50;;
65583;SDS011;73032;43.592;1.458;2024-02-26T05:58:48;2.30;;;0.50;;
65583;SDS011;73032;43.592;1.458;2024-02-26T06:01:16;2.38;;;0.82;;
65583;SDS011;73032;43.592;1.458;2024-02-26T06:03:45;3.80;;;0.60;;
65583;SDS011;73032;43.592;1.458;2024-02-26T06:06:12;4.25;;;0.70;;
65583;SDS011;73032;43.592;1.458;2024-02-26T06:08:41;2.92;;;0.70;;
65583;SDS011;73032;43.592;1.458;2024-02-26T06:11:08;2.83;;;0.55;;
65583;SDS011;73032;43.592;1.458;2024-02-26T06:13:35;3.20;;;0.90;;
65583;SDS011;73032;43.592;1.458;2024-02-26T06:16:02;4.82;;;0.90;;
65583;SDS011;73032;43.592;1.458;2024-02-26T06:18:29;3.75;;;0.70;;
65583;SDS011;73032;43.592;1.458;2024-02-26T06:20:56;4.03;;;0.93;;
65583;SDS011;73032;43.592;1.458;2024-02-26T06:23:23;2.83;;;0.70;;
65583;SDS011;73032;43.592;1.458;2024-02-26T06:25:49;2.15;;;0.57;;
65583;SDS011;73032;43.592;1.458;2024-02-26T06:28:16;2.65;;;0.63;;
65583;SDS011;73032;43.592;1.458;2024-02-26T06:30:43;4.53;;;0.60;;
65583;SDS011;73032;43.592;1.458;2024-02-26T06:33:10;3.47;;;0.40;;
65583;SDS011;73032;43.592;1.458;2024-02-26T06:35:37;2.28;;;0.50;;
65583;SDS011;73032;43.592;1.458;2024-02-26T06:38:04;4.18;;;0.70;;
65583;SDS011;73032;43.592;1.458;2024-02-26T06:40:31;3.33;;;0.82;;
65583;SDS011;73032;43.592;1.458;2024-02-26T06:42:57;4.90;;;0.80;;
65583;SDS011;73032;43.592;1.458;2024-02-26T06:45:24;3.97;;;0.90;;
65583;SDS011;73032;43.592;1.458;2024-02-26T06:47:50;3.85;;;0.70;;
65583;SDS011;73032;43.592;1.458;2024-02-26T06:50:17;2.75;;;0.60;;
65583;SDS011;73032;43.592;1.458;2024-02-26T06:52:44;2.33;;;0.50;;
65583;SDS011;73032;43.592;1.458;2024-02-26T06:55:12;3.72;;;0.40;;
65583;SDS011;73032;43.592;1.458;2024-02-26T06:57:39;1.85;;;0.50;;
65583;SDS011;73032;43.592;1.458;2024-02-26T07:00:06;5.25;;;0.60;;
65583;SDS011;73032;43.592;1.458;2024-02-26T07:02:34;1.75;;;0.60;;
65583;SDS011;73032;43.592;1.458;2024-02-26T07:05:05;3.53;;;0.60;;
65583;SDS011;73032;43.592;1.458;2024-02-26T07:07:32;4.82;;;0.52;;
65583;SDS011;73032;43.592;1.458;2024-02-26T07:09:59;3.15;;;0.40;;
65583;SDS011;73032;43.592;1.458;2024-02-26T07:12:26;3.72;;;0.80;;
65583;SDS011;73032;43.592;1.458;2024-02-26T07:14:53;4.63;;;0.77;;
65583;SDS011;73032;43.592;1.458;2024-02-26T07:17:19;4.80;;;0.90;;
65583;SDS011;73032;43.592;1.458;2024-02-26T07:19:46;2.63;;;0.70;;
65583;SDS011;73032;43.592;1.458;2024-02-26T07:22:13;4.78;;;0.63;;
65583;SDS011;73032;43.592;1.458;2024-02-26T07:24:40;4.78;;;0.80;;
65583;SDS011;73032;43.592;1.458;2024-02-26T07:27:06;7.43;;;0.90;;
65583;SDS011;73032;43.592;1.458;2024-02-26T07:29:33;4.53;;;0.50;;
65583;SDS011;73032;43.592;1.458;2024-02-26T07:32:00;1.55;;;0.57;;
65583;SDS011;73032;43.592;1.458;2024-02-26T07:34:26;2.72;;;0.55;;
65583;SDS011;73032;43.592;1.458;2024-02-26T07:36:56;9.27;;;0.88;;
65583;SDS011;73032;43.592;1.458;2024-02-26T07:39:23;2.25;;;0.57;;
65583;SDS011;73032;43.592;1.458;2024-02-26T07:41:50;2.50;;;0.60;;
65583;SDS011;73032;43.592;1.458;2024-02-26T07:44:19;3.53;;;0.70;;
65583;SDS011;73032;43.592;1.458;2024-02-26T07:46:46;5.97;;;1.80;;
65583;SDS011;73032;43.592;1.458;2024-02-26T07:49:13;3.45;;;0.80;;
65583;SDS011;73032;43.592;1.458;2024-02-26T07:51:40;6.05;;;0.60;;
65583;SDS011;73032;43.592;1.458;2024-02-26T07:54:07;3.72;;;0.65;;
65583;SDS011;73032;43.592;1.458;2024-02-26T07:56:34;3.17;;;0.63;;
65583;SDS011;73032;43.592;1.458;2024-02-26T07:59:01;5.57;;;0.63;;
65583;SDS011;73032;43.592;1.458;2024-02-26T08:01:27;4.97;;;0.65;;
65583;SDS011;73032;43.592;1.458;2024-02-26T08:03:54;4.63;;;0.73;;
65583;SDS011;73032;43.592;1.458;2024-02-26T08:06:23;3.45;;;0.80;;
65583;SDS011;73032;43.592;1.458;2024-02-26T08:08:51;2.63;;;0.65;;
65583;SDS011;73032;43.592;1.458;2024-02-26T08:11:18;5.30;;;0.80;;
65583;SDS011;73032;43.592;1.458;2024-02-26T08:13:45;5.93;;;0.90;;
65583;SDS011;73032;43.592;1.458;2024-02-26T08:16:11;5.68;;;0.70;;
65583;SDS011;73032;43.592;1.458;2024-02-26T08:18:38;4.90;;;0.90;;
65583;SDS011;73032;43.592;1.458;2024-02-26T08:21:05;4.30;;;0.70;;
65583;SDS011;73032;43.592;1.458;2024-02-26T08:23:32;5.18;;;1.20;;
65583;SDS011;73032;43.592;1.458;2024-02-26T08:25:59;6.57;;;1.27;;
65583;SDS011;73032;43.592;1.458;2024-02-26T08:28:26;2.72;;;0.52;;
65583;SDS011;73032;43.592;1.458;2024-02-26T08:30:52;6.15;;;0.90;;
65583;SDS011;73032;43.592;1.458;2024-02-26T08:33:19;3.88;;;1.02;;
65583;SDS011;73032;43.592;1.458;2024-02-26T08:35:46;3.65;;;0.95;;
65583;SDS011;73032;43.592;1.458;2024-02-26T08:38:13;5.53;;;1.10;;
65583;SDS011;73032;43.592;1.458;2024-02-26T08:40:41;4.55;;;0.80;;
65583;SDS011;73032;43.592;1.458;2024-02-26T08:43:08;7.03;;;0.80;;
65583;SDS011;73032;43.592;1.458;2024-02-26T08:45:36;6.00;;;0.70;;
65583;SDS011;73032;43.592;1.458;2024-02-26T08:48:03;5.97;;;0.90;;
65583;SDS011;73032;43.592;1.458;2024-02-26T08:50:30;4.72;;;0.77;;
65583;SDS011;73032;43.592;1.458;2024-02-26T08:52:57;5.72;;;0.70;;
65583;SDS011;73032;43.592;1.458;2024-02-26T08:55:24;1.65;;;0.50;;
65583;SDS011;73032;43.592;1.458;2024-02-26T08:57:50;5.40;;;0.70;;
65583;SDS011;73032;43.592;1.458;2024-02-26T09:00:17;3.78;;;1.23;;
65583;SDS011;73032;43.592;1.458;2024-02-26T09:02:47;5.28;;;0.80;;
65583;SDS011;73032;43.592;1.458;2024-02-26T09:05:15;8.20;;;1.13;;
65583;SDS011;73032;43.592;1.458;2024-02-26T09:07:42;7.68;;;1.10;;
65583;SDS011;73032;43.592;1.458;2024-02-26T09:10:09;6.65;;;1.10;;
65583;SDS011;73032;43.592;1.458;2024-02-26T09:12:37;5.20;;;0.70;;
65583;SDS011;73032;43.592;1.458;2024-02-26T09:15:07;5.38;;;0.90;;
65583;SDS011;73032;43.592;1.458;2024-02-26T09:17:34;6.57;;;1.02;;
65583;SDS011;73032;43.592;1.458;2024-02-26T09:20:01;5.47;;;0.98;;
65583;SDS011;73032;43.592;1.458;2024-02-26T09:22:29;4.70;;;0.80;;
65583;SDS011;73032;43.592;1.458;2024-02-26T09:24:56;9.68;;;0.75;;
65583;SDS011;73032;43.592;1.458;2024-02-26T09:27:22;3.80;;;0.70;;
65583;SDS011;73032;43.592;1.458;2024-02-26T09:29:50;4.72;;;0.82;;
65583;SDS011;73032;43.592;1.458;2024-02-26T09:32:17;8.40;;;1.02;;
65583;SDS011;73032;43.592;1.458;2024-02-26T09:34:44;3.08;;;0.70;;
65583;SDS011;73032;43.592;1.458;2024-02-26T09:37:11;4.25;;;0.93;;
65583;SDS011;73032;43.592;1.458;2024-02-26T09:39:47;4.07;;;0.80;;
65583;SDS011;73032;43.592;1.458;2024-02-26T09:42:14;3.90;;;1.10;;
65583;SDS011;73032;43.592;1.458;2024-02-26T09:44:45;3.08;;;0.80;;
65583;SDS011;73032;43.592;1.458;2024-02-26T09:47:12;5.50;;;1.05;;
65583;SDS011;73032;43.592;1.458;2024-02-26T09:49:42;2.72;;;0.85;;
65583;SDS011;73032;43.592;1.458;2024-02-26T09:52:10;4.25;;;0.95;;
65583;SDS011;73032;43.592;1.458;2024-02-26T09:54:38;2.13;;;0.70;;
65583;SDS011;73032;43.592;1.458;2024-02-26T09:57:05;2.63;;;0.80;;
65583;SDS011;73032;43.592;1.458;2024-02-26T09:59:41;3.75;;;0.82;;
65583;SDS011;73032;43.592;1.458;2024-02-26T10:02:11;4.88;;;0.85;;
65583;SDS011;73032;43.592;1.458;2024-02-26T10:04:39;5.78;;;0.88;;
65583;SDS011;73032;43.592;1.458;2024-02-26T10:07:10;2.47;;;0.70;;
65583;SDS011;73032;43.592;1.458;2024-02-26T10:09:39;4.53;;;0.90;;
65583;SDS011;73032;43.592;1.458;2024-02-26T10:12:06;4.47;;;1.10;;
65583;SDS011;73032;43.592;1.458;2024-02-26T10:14:38;2.45;;;0.70;;
65583;SDS011;73032;43.592;1.458;2024-02-26T10:17:08;2.45;;;0.60;;
65583;SDS011;73032;43.592;1.458;2024-02-26T10:19:35;2.25;;;0.70;;
65583;SDS011;73032;43.592;1.458;2024-02-26T10:22:04;2.92;;;0.90;;
65583;SDS011;73032;43.592;1.458;2024-02-26T10:24:32;3.67;;;0.80;;
65583;SDS011;73032;43.592;1.458;2024-02-26T10:26:58;2.55;;;0.82;;
65583;SDS011;73032;43.592;1.458;2024-02-26T10:29:25;5.13;;;1.10;;
65583;SDS011;73032;43.592;1.458;2024-02-26T10:31:52;2.95;;;0.90;;
65583;SDS011;73032;43.592;1.458;2024-02-26T10:34:19;4.32;;;0.95;;
65583;SDS011;73032;43.592;1.458;2024-02-26T10:36:46;2.55;;;0.85;;
65583;SDS011;73032;43.592;1.458;2024-02-26T10:39:19;2.47;;;0.75;;
65583;SDS011;73032;43.592;1.458;2024-02-26T10:41:47;3.33;;;0.90;;
65583;SDS011;73032;43.592;1.458;2024-02-26T10:44:14;2.47;;;0.80;;
65583;SDS011;73032;43.592;1.458;2024-02-26T10:46:45;2.15;;;0.60;;
65583;SDS011;73032;43.592;1.458;2024-02-26T10:49:14;2.80;;;0.90;;
65583;SDS011;73032;43.592;1.458;2024-02-26T10:51:45;5.07;;;0.98;;
65583;SDS011;73032;43.592;1.458;2024-02-26T10:54:17;4.47;;;1.10;;
65583;SDS011;73032;43.592;1.458;2024-02-26T10:56:45;3.63;;;0.90;;
65583;SDS011;73032;43.592;1.458;2024-02-26T10:59:14;4.35;;;0.98;;
65583;SDS011;73032;43.592;1.458;2024-02-26T11:01:47;3.92;;;0.90;;
65583;SDS011;73032;43.592;1.458;2024-02-26T11:04:16;4.55;;;1.00;;
65583;SDS011;73032;43.592;1.458;2024-02-26T11:06:46;4.38;;;0.95;;
65583;SDS011;73032;43.592;1.458;2024-02-26T11:09:14;3.13;;;0.80;;
65583;SDS011;73032;43.592;1.458;2024-02-26T11:11:42;3.47;;;0.70;;
65583;SDS011;73032;43.592;1.458;2024-02-26T11:14:09;1.83;;;0.50;;
65583;SDS011;73032;43.592;1.458;2024-02-26T11:16:37;2.15;;;0.60;;
65583;SDS011;73032;43.592;1.458;2024-02-26T11:19:05;3.25;;;0.73;;
65583;SDS011;73032;43.592;1.458;2024-02-26T11:21:35;2.95;;;0.80;;
65583;SDS011;73032;43.592;1.458;2024-02-26T11:24:08;3.72;;;1.02;;
65583;SDS011;73032;43.592;1.458;2024-02-26T11:26:42;2.95;;;0.70;;
65583;SDS011;73032;43.592;1.458;2024-02-26T11:29:16;2.90;;;0.70;;
65583;SDS011;73032;43.592;1.458;2024-02-26T11:31:46;3.10;;;0.50;;
65583;SDS011;73032;43.592;1.458;2024-02-26T11:34:13;2.63;;;0.88;;
65583;SDS011;73032;43.592;1.458;2024-02-26T11:36:40;2.40;;;0.73;;
65583;SDS011;73032;43.592;1.458;2024-02-26T11:39:08;2.42;;;0.60;;
65583;SDS011;73032;43.592;1.458;2024-02-26T11:41:43;2.80;;;0.73;;
65583;SDS011;73032;43.592;1.458;2024-02-26T11:44:10;1.25;;;0.50;;
65583;SDS011;73032;43.592;1.458;2024-02-26T11:46:41;1.92;;;0.60;;
65583;SDS011;73032;43.592;1.458;2024-02-26T11:51:55;2.38;;;0.50;;
65583;SDS011;73032;43.592;1.458;2024-02-26T11:59:55;1.98;;;0.60;;
65583;SDS011;73032;43.592;1.458;2024-02-26T12:05:12;2.88;;;1.20;;
65583;SDS011;73032;43.592;1.458;2024-02-26T12:07:49;2.60;;;0.60;;
65583;SDS011;73032;43.592;1.458;2024-02-26T12:10:22;1.20;;;0.43;;
65583;SDS011;73032;43.592;1.458;2024-02-26T12:15:26;5.65;;;0.70;;
65583;SDS011;73032;43.592;1.458;2024-02-26T12:17:57;1.83;;;0.50;;
65583;SDS011;73032;43.592;1.458;2024-02-26T12:20:26;1.83;;;0.70;;
65583;SDS011;73032;43.592;1.458;2024-02-26T12:22:53;1.95;;;0.68;;
65583;SDS011;73032;43.592;1.458;2024-02-26T12:25:23;2.45;;;0.65;;
65583;SDS011;73032;43.592;1.458;2024-02-26T12:27:54;3.17;;;0.70;;
65583;SDS011;73032;43.592;1.458;2024-02-26T12:30:21;1.27;;;0.60;;
65583;SDS011;73032;43.592;1.458;2024-02-26T12:32:50;1.17;;;0.47;;
65583;SDS011;73032;43.592;1.458;2024-02-26T12:35:18;2.22;;;0.60;;
65583;SDS011;73032;43.592;1.458;2024-02-26T12:37:45;1.42;;;0.52;;
65583;SDS011;73032;43.592;1.458;2024-02-26T12:40:12;1.95;;;0.63;;
65583;SDS011;73032;43.592;1.458;2024-02-26T12:42:40;0.85;;;0.30;;
65583;SDS011;73032;43.592;1.458;2024-02-26T12:45:07;2.45;;;0.68;;
65583;SDS011;73032;43.592;1.458;2024-02-26T12:47:39;1.10;;;0.47;;
65583;SDS011;73032;43.592;1.458;2024-02-26T12:50:06;2.42;;;0.60;;
65583;SDS011;73032;43.592;1.458;2024-02-26T12:52:36;2.13;;;0.55;;
65583;SDS011;73032;43.592;1.458;2024-02-26T12:55:06;2.28;;;1.00;;
65583;SDS011;73032;43.592;1.458;2024-02-26T12:57:37;2.20;;;0.77;;
65583;SDS011;73032;43.592;1.458;2024-02-26T13:00:05;2.25;;;0.70;;
65583;SDS011;73032;43.592;1.458;2024-02-26T13:02:36;3.88;;;0.60;;
65583;SDS011;73032;43.592;1.458;2024-02-26T13:05:04;1.17;;;0.50;;
65583;SDS011;73032;43.592;1.458;2024-02-26T13:07:33;1.52;;;0.63;;
65583;SDS011;73032;43.592;1.458;2024-02-26T13:10:00;0.75;;;0.40;;
65583;SDS011;73032;43.592;1.458;2024-02-26T13:12:27;1.33;;;0.60;;
65583;SDS011;73032;43.592;1.458;2024-02-26T13:15:00;2.10;;;0.70;;
65583;SDS011;73032;43.592;1.458;2024-02-26T13:17:32;1.55;;;0.40;;
65583;SDS011;73032;43.592;1.458;2024-02-26T13:19:59;1.33;;;0.50;;
65583;SDS011;73032;43.592;1.458;2024-02-26T13:22:26;1.23;;;0.50;;
65583;SDS011;73032;43.592;1.458;2024-02-26T13:24:53;0.93;;;0.40;;
65583;SDS011;73032;43.592;1.458;2024-02-26T13:27:23;1.35;;;0.68;;
65583;SDS011;73032;43.592;1.458;2024-02-26T13:32:33;18.80;;;1.13;;
65583;SDS011;73032;43.592;1.458;2024-02-26T13:35:08;2.08;;;0.70;;
65583;SDS011;73032;43.592;1.458;2024-02-26T13:37:36;2.42;;;0.70;;
65583;SDS011;73032;43.592;1.458;2024-02-26T13:40:07;0.82;;;0.50;;
65583;SDS011;73032;43.592;1.458;2024-02-26T13:42:35;1.05;;;0.50;;
65583;SDS011;73032;43.592;1.458;2024-02-26T13:47:33;3.08;;;0.57;;
65583;SDS011;73032;43.592;1.458;2024-02-26T13:50:01;1.00;;;0.50;;
65583;SDS011;73032;43.592;1.458;2024-02-26T13:52:32;1.42;;;0.70;;
65583;SDS011;73032;43.592;1.458;2024-02-26T13:54:59;2.63;;;0.68;;
65583;SDS011;73032;43.592;1.458;2024-02-26T13:57:26;1.92;;;0.57;;
65583;SDS011;73032;43.592;1.458;2024-02-26T13:59:53;2.63;;;0.60;;
65583;SDS011;73032;43.592;1.458;2024-02-26T14:02:20;1.15;;;0.52;;
65583;SDS011;73032;43.592;1.458;2024-02-26T14:04:47;0.90;;;0.55;;
65583;SDS011;73032;43.592;1.458;2024-02-26T14:07:14;1.08;;;0.50;;
65583;SDS011;73032;43.592;1.458;2024-02-26T14:09:41;0.95;;;0.43;;
65583;SDS011;73032;43.592;1.458;2024-02-26T14:12:15;2.05;;;0.43;;
65583;SDS011;73032;43.592;1.458;2024-02-26T14:14:44;0.70;;;0.32;;
65583;SDS011;73032;43.592;1.458;2024-02-26T14:17:12;1.50;;;0.50;;
65583;SDS011;73032;43.592;1.458;2024-02-26T14:19:39;3.33;;;0.55;;
65583;SDS011;73032;43.592;1.458;2024-02-26T14:22:12;0.75;;;0.40;;
65583;SDS011;73032;43.592;1.458;2024-02-26T14:24:39;3.13;;;0.50;;
65583;SDS011;73032;43.592;1.458;2024-02-26T14:27:12;1.20;;;0.52;;
65583;SDS011;73032;43.592;1.458;2024-02-26T14:29:43;1.15;;;0.40;;
65583;SDS011;73032;43.592;1.458;2024-02-26T14:32:10;1.08;;;0.40;;
65583;SDS011;73032;43.592;1.458;2024-02-26T14:34:37;0.45;;;0.30;;
65583;SDS011;73032;43.592;1.458;2024-02-26T14:37:04;0.68;;;0.30;;
65583;SDS011;73032;43.592;1.458;2024-02-26T14:39:31;0.90;;;0.50;;
65583;SDS011;73032;43.592;1.458;2024-02-26T14:41:59;0.50;;;0.30;;
65583;SDS011;73032;43.592;1.458;2024-02-26T14:44:26;2.05;;;0.60;;
65583;SDS011;73032;43.592;1.458;2024-02-26T14:46:53;1.23;;;0.50;;
65583;SDS011;73032;43.592;1.458;2024-02-26T14:49:20;0.80;;;0.32;;
65583;SDS011;73032;43.592;1.458;2024-02-26T14:51:47;0.90;;;0.32;;
65583;SDS011;73032;43.592;1.458;2024-02-26T14:54:13;0.73;;;0.30;;
65583;SDS011;73032;43.592;1.458;2024-02-26T14:56:40;0.73;;;0.30;;
65583;SDS011;73032;43.592;1.458;2024-02-26T14:59:07;0.50;;;0.40;;
65583;SDS011;73032;43.592;1.458;2024-02-26T15:01:34;2.10;;;0.50;;
65583;SDS011;73032;43.592;1.458;2024-02-26T15:04:01;0.32;;;0.30;;
65583;SDS011;73032;43.592;1.458;2024-02-26T15:06:28;2.00;;;0.60;;
65583;SDS011;73032;43.592;1.458;2024-02-26T15:08:55;2.10;;;0.50;;